sensor_id;sensor_type;location;lat;lon;timestamp;temperature;humidity
23715;DHT22;12036;50.858;4.472;2023-05-07T00:01:27;15.80;99.90
23715;DHT22;12036;50.858;4.472;2023-05-07T00:03:52;15.80;99.90
23715;DHT22;12036;50.858;4.472;2023-05-07T00:06:18;15.90;99.90
23715;DHT22;12036;50.858;4.472;2023-05-07T00:08:45;15.90;99.90
23715;DHT22;12036;50.858;4.472;2023-05-07T00:11:10;15.90;99.90
23715;DHT22;12036;50.858;4.472;2023-05-07T00:13:36;15.80;99.90
23715;DHT22;12036;50.858;4.472;2023-05-07T00:16:05;15.80;99.90
23715;DHT22;12036;50.858;4.472;2023-05-07T00:18:30;15.90;99.90
23715;DHT22;12036;50.858;4.472;2023-05-07T00:20:56;15.90;99.90
23715;DHT22;12036;50.858;4.472;2023-05-07T00:23:22;15.90;99.90
23715;DHT22;12036;50.858;4.472;2023-05-07T00:25:48;15.90;99.90
23715;DHT22;12036;50.858;4.472;2023-05-07T00:28:14;15.90;99.90
23715;DHT22;12036;50.858;4.472;2023-05-07T00:30:39;15.90;99.90
23715;DHT22;12036;50.858;4.472;2023-05-07T00:33:05;15.90;99.90
23715;DHT22;12036;50.858;4.472;2023-05-07T00:35:31;15.80;99.90
23715;DHT22;12036;50.858;4.472;2023-05-07T00:37:56;15.80;99.90
23715;DHT22;12036;50.858;4.472;2023-05-07T00:40:22;15.80;99.90
23715;DHT22;12036;50.858;4.472;2023-05-07T00:42:47;15.80;99.90
23715;DHT22;12036;50.858;4.472;2023-05-07T00:45:14;15.80;99.90
23715;DHT22;12036;50.858;4.472;2023-05-07T00:47:40;15.80;99.90
23715;DHT22;12036;50.858;4.472;2023-05-07T00:50:08;15.70;99.90
23715;DHT22;12036;50.858;4.472;2023-05-07T00:52:35;15.70;99.90
23715;DHT22;12036;50.858;4.472;2023-05-07T00:55:05;15.70;99.90
23715;DHT22;12036;50.858;4.472;2023-05-07T00:57:35;15.70;99.90
23715;DHT22;12036;50.858;4.472;2023-05-07T01:00:06;15.70;99.90
23715;DHT22;12036;50.858;4.472;2023-05-07T01:02:37;15.60;99.90
23715;DHT22;12036;50.858;4.472;2023-05-07T01:05:04;15.60;99.90
23715;DHT22;12036;50.858;4.472;2023-05-07T01:07:32;15.60;99.90
23715;DHT22;12036;50.858;4.472;2023-05-07T01:09:59;15.60;99.90
23715;DHT22;12036;50.858;4.472;2023-05-07T01:12:26;15.60;99.90
23715;DHT22;12036;50.858;4.472;2023-05-07T01:14:53;15.60;99.90
23715;DHT22;12036;50.858;4.472;2023-05-07T01:17:19;15.60;99.90
23715;DHT22;12036;50.858;4.472;2023-05-07T01:19:44;15.60;99.90
23715;DHT22;12036;50.858;4.472;2023-05-07T01:22:11;15.50;99.90
23715;DHT22;12036;50.858;4.472;2023-05-07T01:24:37;15.50;99.90
23715;DHT22;12036;50.858;4.472;2023-05-07T01:27:04;15.50;99.90
23715;DHT22;12036;50.858;4.472;2023-05-07T01:29:30;15.40;99.90
23715;DHT22;12036;50.858;4.472;2023-05-07T01:32:00;15.50;99.90
23715;DHT22;12036;50.858;4.472;2023-05-07T01:34:27;15.50;99.90
23715;DHT22;12036;50.858;4.472;2023-05-07T01:36:54;15.40;99.90
23715;DHT22;12036;50.858;4.472;2023-05-07T01:39:23;15.40;99.90
23715;DHT22;12036;50.858;4.472;2023-05-07T01:41:50;15.40;99.90
23715;DHT22;12036;50.858;4.472;2023-05-07T01:44:16;15.40;99.90
23715;DHT22;12036;50.858;4.472;2023-05-07T01:46:44;15.50;99.90
23715;DHT22;12036;50.858;4.472;2023-05-07T01:49:10;15.50;99.90
23715;DHT22;12036;50.858;4.472;2023-05-07T01:51:36;15.50;99.90
23715;DHT22;12036;50.858;4.472;2023-05-07T01:54:02;15.40;99.90
23715;DHT22;12036;50.858;4.472;2023-05-07T01:56:27;15.40;99.90
23715;DHT22;12036;50.858;4.472;2023-05-07T01:58:53;15.40;99.90
23715;DHT22;12036;50.858;4.472;2023-05-07T02:01:19;15.40;99.90
23715;DHT22;12036;50.858;4.472;2023-05-07T02:03:44;15.40;99.90
23715;DHT22;12036;50.858;4.472;2023-05-07T02:06:10;15.40;99.90
23715;DHT22;12036;50.858;4.472;2023-05-07T02:08:36;15.40;99.90
23715;DHT22;12036;50.858;4.472;2023-05-07T02:11:01;15.30;99.90
23715;DHT22;12036;50.858;4.472;2023-05-07T02:13:33;15.30;99.90
23715;DHT22;12036;50.858;4.472;2023-05-07T02:15:59;15.30;99.90
23715;DHT22;12036;50.858;4.472;2023-05-07T02:18:25;15.30;99.90
23715;DHT22;12036;50.858;4.472;2023-05-07T02:20:51;15.30;99.90
23715;DHT22;12036;50.858;4.472;2023-05-07T02:23:16;15.30;99.90
23715;DHT22;12036;50.858;4.472;2023-05-07T02:25:42;15.30;99.90
23715;DHT22;12036;50.858;4.472;2023-05-07T02:28:07;15.30;99.90
23715;DHT22;12036;50.858;4.472;2023-05-07T02:30:33;15.20;99.90
23715;DHT22;12036;50.858;4.472;2023-05-07T02:32:59;15.20;99.90
23715;DHT22;12036;50.858;4.472;2023-05-07T02:35:25;15.20;99.90
23715;DHT22;12036;50.858;4.472;2023-05-07T02:37:51;15.20;99.90
23715;DHT22;12036;50.858;4.472;2023-05-07T02:40:16;15.10;99.90
23715;DHT22;12036;50.858;4.472;2023-05-07T02:42:42;15.10;99.90
23715;DHT22;12036;50.858;4.472;2023-05-07T02:45:08;15.00;99.90
23715;DHT22;12036;50.858;4.472;2023-05-07T02:47:34;15.00;99.90
23715;DHT22;12036;50.858;4.472;2023-05-07T02:50:00;14.90;99.90
23715;DHT22;12036;50.858;4.472;2023-05-07T02:52:25;14.90;99.90
23715;DHT22;12036;50.858;4.472;2023-05-07T02:54:51;14.80;99.90
23715;DHT22;12036;50.858;4.472;2023-05-07T02:57:17;14.70;99.90
23715;DHT22;12036;50.858;4.472;2023-05-07T02:59:43;14.70;99.90
23715;DHT22;12036;50.858;4.472;2023-05-07T03:02:08;14.60;99.90
23715;DHT22;12036;50.858;4.472;2023-05-07T03:04:34;14.60;99.90
23715;DHT22;12036;50.858;4.472;2023-05-07T03:07:00;14.60;99.90
23715;DHT22;12036;50.858;4.472;2023-05-07T03:09:25;14.50;99.90
23715;DHT22;12036;50.858;4.472;2023-05-07T03:11:51;14.50;99.90
23715;DHT22;12036;50.858;4.472;2023-05-07T03:14:17;14.50;99.90
23715;DHT22;12036;50.858;4.472;2023-05-07T03:16:42;14.60;99.90
23715;DHT22;12036;50.858;4.472;2023-05-07T03:19:08;14.60;99.90
23715;DHT22;12036;50.858;4.472;2023-05-07T03:21:34;14.60;99.90
23715;DHT22;12036;50.858;4.472;2023-05-07T03:24:00;14.70;99.90
23715;DHT22;12036;50.858;4.472;2023-05-07T03:26:26;14.70;99.90
23715;DHT22;12036;50.858;4.472;2023-05-07T03:28:51;14.70;99.90
23715;DHT22;12036;50.858;4.472;2023-05-07T03:31:17;14.70;99.90
23715;DHT22;12036;50.858;4.472;2023-05-07T03:33:54;14.80;99.90
23715;DHT22;12036;50.858;4.472;2023-05-07T03:36:20;14.80;99.90
23715;DHT22;12036;50.858;4.472;2023-05-07T03:38:47;14.80;99.90
23715;DHT22;12036;50.858;4.472;2023-05-07T03:41:13;14.80;99.90
23715;DHT22;12036;50.858;4.472;2023-05-07T03:43:39;14.80;99.90
23715;DHT22;12036;50.858;4.472;2023-05-07T03:46:04;14.90;99.90
23715;DHT22;12036;50.858;4.472;2023-05-07T03:48:30;14.90;99.90
23715;DHT22;12036;50.858;4.472;2023-05-07T03:50:57;14.80;99.90
23715;DHT22;12036;50.858;4.472;2023-05-07T03:53:22;14.90;99.90
23715;DHT22;12036;50.858;4.472;2023-05-07T03:55:48;14.90;99.90
23715;DHT22;12036;50.858;4.472;2023-05-07T03:58:14;14.90;99.90
23715;DHT22;12036;50.858;4.472;2023-05-07T04:00:39;14.90;99.90
23715;DHT22;12036;50.858;4.472;2023-05-07T04:03:06;14.90;99.90
23715;DHT22;12036;50.858;4.472;2023-05-07T04:05:32;14.90;99.90
23715;DHT22;12036;50.858;4.472;2023-05-07T04:07:58;14.90;99.90
23715;DHT22;12036;50.858;4.472;2023-05-07T04:10:24;15.00;99.90
23715;DHT22;12036;50.858;4.472;2023-05-07T04:12:50;15.00;99.90
23715;DHT22;12036;50.858;4.472;2023-05-07T04:15:15;15.00;99.90
23715;DHT22;12036;50.858;4.472;2023-05-07T04:17:41;14.90;99.90
23715;DHT22;12036;50.858;4.472;2023-05-07T04:20:10;14.90;99.90
23715;DHT22;12036;50.858;4.472;2023-05-07T04:22:36;14.90;99.90
23715;DHT22;12036;50.858;4.472;2023-05-07T04:25:03;14.90;99.90
23715;DHT22;12036;50.858;4.472;2023-05-07T04:27:29;14.90;99.90
23715;DHT22;12036;50.858;4.472;2023-05-07T04:29:55;14.90;99.90
23715;DHT22;12036;50.858;4.472;2023-05-07T04:32:22;14.90;99.90
23715;DHT22;12036;50.858;4.472;2023-05-07T04:34:47;15.00;99.90
23715;DHT22;12036;50.858;4.472;2023-05-07T04:37:13;15.00;99.90
23715;DHT22;12036;50.858;4.472;2023-05-07T04:39:39;15.00;99.90
23715;DHT22;12036;50.858;4.472;2023-05-07T04:42:04;15.00;99.90
23715;DHT22;12036;50.858;4.472;2023-05-07T04:44:34;15.00;99.90
23715;DHT22;12036;50.858;4.472;2023-05-07T04:47:00;15.00;99.90
23715;DHT22;12036;50.858;4.472;2023-05-07T04:49:26;15.10;99.90
23715;DHT22;12036;50.858;4.472;2023-05-07T04:51:52;15.10;99.90
23715;DHT22;12036;50.858;4.472;2023-05-07T04:54:17;15.20;99.90
23715;DHT22;12036;50.858;4.472;2023-05-07T04:56:43;15.20;99.90
23715;DHT22;12036;50.858;4.472;2023-05-07T04:59:08;15.30;99.90
23715;DHT22;12036;50.858;4.472;2023-05-07T05:01:34;15.30;99.90
23715;DHT22;12036;50.858;4.472;2023-05-07T05:04:00;15.30;99.90
23715;DHT22;12036;50.858;4.472;2023-05-07T05:06:26;15.30;99.90
23715;DHT22;12036;50.858;4.472;2023-05-07T05:08:51;15.40;99.90
23715;DHT22;12036;50.858;4.472;2023-05-07T05:11:17;15.40;99.90
23715;DHT22;12036;50.858;4.472;2023-05-07T05:13:43;15.40;99.90
23715;DHT22;12036;50.858;4.472;2023-05-07T05:16:08;15.40;99.90
23715;DHT22;12036;50.858;4.472;2023-05-07T05:18:34;15.50;99.90
23715;DHT22;12036;50.858;4.472;2023-05-07T05:21:00;15.40;99.90
23715;DHT22;12036;50.858;4.472;2023-05-07T05:23:26;15.50;99.90
23715;DHT22;12036;50.858;4.472;2023-05-07T05:25:58;15.60;99.90
23715;DHT22;12036;50.858;4.472;2023-05-07T05:28:24;15.60;99.90
23715;DHT22;12036;50.858;4.472;2023-05-07T05:30:49;15.70;99.90
23715;DHT22;12036;50.858;4.472;2023-05-07T05:33:15;15.80;99.90
23715;DHT22;12036;50.858;4.472;2023-05-07T05:35:42;15.90;99.90
23715;DHT22;12036;50.858;4.472;2023-05-07T05:38:07;16.00;99.90
23715;DHT22;12036;50.858;4.472;2023-05-07T05:40:33;16.00;99.90
23715;DHT22;12036;50.858;4.472;2023-05-07T05:42:59;16.00;99.90
23715;DHT22;12036;50.858;4.472;2023-05-07T05:45:25;16.10;99.90
23715;DHT22;12036;50.858;4.472;2023-05-07T05:47:51;16.10;99.90
23715;DHT22;12036;50.858;4.472;2023-05-07T05:50:17;16.00;99.90
23715;DHT22;12036;50.858;4.472;2023-05-07T05:52:42;16.10;99.90
23715;DHT22;12036;50.858;4.472;2023-05-07T05:55:08;16.10;99.90
23715;DHT22;12036;50.858;4.472;2023-05-07T05:57:34;16.10;99.90
23715;DHT22;12036;50.858;4.472;2023-05-07T06:00:01;16.10;99.90
23715;DHT22;12036;50.858;4.472;2023-05-07T06:02:28;16.10;99.90
23715;DHT22;12036;50.858;4.472;2023-05-07T06:04:53;16.20;99.90
23715;DHT22;12036;50.858;4.472;2023-05-07T06:07:19;16.20;99.90
23715;DHT22;12036;50.858;4.472;2023-05-07T06:09:45;16.10;99.90
23715;DHT22;12036;50.858;4.472;2023-05-07T06:12:11;16.20;99.90
23715;DHT22;12036;50.858;4.472;2023-05-07T06:14:36;16.10;99.90
23715;DHT22;12036;50.858;4.472;2023-05-07T06:17:02;16.10;99.90
23715;DHT22;12036;50.858;4.472;2023-05-07T06:19:28;16.10;99.90
23715;DHT22;12036;50.858;4.472;2023-05-07T06:21:53;16.10;99.90
23715;DHT22;12036;50.858;4.472;2023-05-07T06:24:19;16.20;99.90
23715;DHT22;12036;50.858;4.472;2023-05-07T06:26:45;16.20;99.90
23715;DHT22;12036;50.858;4.472;2023-05-07T06:29:10;16.30;99.90
23715;DHT22;12036;50.858;4.472;2023-05-07T06:31:36;16.30;99.90
23715;DHT22;12036;50.858;4.472;2023-05-07T06:34:02;16.40;99.90
23715;DHT22;12036;50.858;4.472;2023-05-07T06:36:28;16.50;99.90
23715;DHT22;12036;50.858;4.472;2023-05-07T06:38:53;16.50;99.90
23715;DHT22;12036;50.858;4.472;2023-05-07T06:41:20;16.70;99.90
23715;DHT22;12036;50.858;4.472;2023-05-07T06:43:46;16.80;99.90
23715;DHT22;12036;50.858;4.472;2023-05-07T06:46:11;16.80;99.90
23715;DHT22;12036;50.858;4.472;2023-05-07T06:48:37;16.80;99.90
23715;DHT22;12036;50.858;4.472;2023-05-07T06:51:02;16.80;99.90
23715;DHT22;12036;50.858;4.472;2023-05-07T06:53:28;16.80;99.90
23715;DHT22;12036;50.858;4.472;2023-05-07T06:55:56;16.70;99.90
23715;DHT22;12036;50.858;4.472;2023-05-07T06:58:21;16.70;99.90
23715;DHT22;12036;50.858;4.472;2023-05-07T07:00:47;16.70;99.90
23715;DHT22;12036;50.858;4.472;2023-05-07T07:03:13;16.70;99.90
23715;DHT22;12036;50.858;4.472;2023-05-07T07:05:41;16.70;99.90
23715;DHT22;12036;50.858;4.472;2023-05-07T07:08:07;16.60;99.90
23715;DHT22;12036;50.858;4.472;2023-05-07T07:10:32;16.60;99.90
23715;DHT22;12036;50.858;4.472;2023-05-07T07:12:58;16.50;99.90
23715;DHT22;12036;50.858;4.472;2023-05-07T07:15:24;16.50;99.90
23715;DHT22;12036;50.858;4.472;2023-05-07T07:17:50;16.50;99.90
23715;DHT22;12036;50.858;4.472;2023-05-07T07:20:16;16.50;99.90
23715;DHT22;12036;50.858;4.472;2023-05-07T07:22:42;16.50;99.90
23715;DHT22;12036;50.858;4.472;2023-05-07T07:25:08;16.60;99.90
23715;DHT22;12036;50.858;4.472;2023-05-07T07:27:34;16.60;99.90
23715;DHT22;12036;50.858;4.472;2023-05-07T07:29:59;16.50;99.90
23715;DHT22;12036;50.858;4.472;2023-05-07T07:32:25;16.50;99.90
23715;DHT22;12036;50.858;4.472;2023-05-07T07:34:51;16.50;99.90
23715;DHT22;12036;50.858;4.472;2023-05-07T07:37:17;16.50;99.90
23715;DHT22;12036;50.858;4.472;2023-05-07T07:39:42;16.50;99.90
23715;DHT22;12036;50.858;4.472;2023-05-07T07:42:08;16.60;99.90
23715;DHT22;12036;50.858;4.472;2023-05-07T07:44:33;16.60;99.90
23715;DHT22;12036;50.858;4.472;2023-05-07T07:46:59;16.60;99.90
23715;DHT22;12036;50.858;4.472;2023-05-07T07:49:25;16.60;99.90
23715;DHT22;12036;50.858;4.472;2023-05-07T07:51:50;16.60;99.90
23715;DHT22;12036;50.858;4.472;2023-05-07T07:54:16;16.60;99.90
23715;DHT22;12036;50.858;4.472;2023-05-07T07:56:42;16.60;99.90
23715;DHT22;12036;50.858;4.472;2023-05-07T07:59:07;16.50;99.90
23715;DHT22;12036;50.858;4.472;2023-05-07T08:01:33;16.50;99.90
23715;DHT22;12036;50.858;4.472;2023-05-07T08:03:59;16.50;99.90
23715;DHT22;12036;50.858;4.472;2023-05-07T08:06:25;16.40;99.90
23715;DHT22;12036;50.858;4.472;2023-05-07T08:08:53;16.40;99.90
23715;DHT22;12036;50.858;4.472;2023-05-07T08:11:19;16.40;99.90
23715;DHT22;12036;50.858;4.472;2023-05-07T08:13:45;16.40;99.90
23715;DHT22;12036;50.858;4.472;2023-05-07T08:16:11;16.40;99.90
23715;DHT22;12036;50.858;4.472;2023-05-07T08:18:37;16.30;99.90
23715;DHT22;12036;50.858;4.472;2023-05-07T08:21:03;16.30;99.90
23715;DHT22;12036;50.858;4.472;2023-05-07T08:23:28;16.30;99.90
23715;DHT22;12036;50.858;4.472;2023-05-07T08:25:54;16.30;99.90
23715;DHT22;12036;50.858;4.472;2023-05-07T08:28:20;16.30;99.90
23715;DHT22;12036;50.858;4.472;2023-05-07T08:30:46;16.30;99.90
23715;DHT22;12036;50.858;4.472;2023-05-07T08:33:12;16.30;99.90
23715;DHT22;12036;50.858;4.472;2023-05-07T08:35:38;16.30;99.90
23715;DHT22;12036;50.858;4.472;2023-05-07T08:38:04;16.40;99.90
23715;DHT22;12036;50.858;4.472;2023-05-07T08:40:35;16.30;99.90
23715;DHT22;12036;50.858;4.472;2023-05-07T08:43:02;16.30;99.90
23715;DHT22;12036;50.858;4.472;2023-05-07T08:45:29;16.30;99.90
23715;DHT22;12036;50.858;4.472;2023-05-07T08:47:59;16.20;99.90
23715;DHT22;12036;50.858;4.472;2023-05-07T08:50:25;16.20;99.90
23715;DHT22;12036;50.858;4.472;2023-05-07T08:52:51;16.20;99.90
23715;DHT22;12036;50.858;4.472;2023-05-07T08:55:17;16.20;99.90
23715;DHT22;12036;50.858;4.472;2023-05-07T08:57:43;16.20;99.90
23715;DHT22;12036;50.858;4.472;2023-05-07T09:00:09;16.30;99.90
23715;DHT22;12036;50.858;4.472;2023-05-07T09:02:36;16.30;99.90
23715;DHT22;12036;50.858;4.472;2023-05-07T09:05:02;16.40;99.90
23715;DHT22;12036;50.858;4.472;2023-05-07T09:07:28;16.40;99.90
23715;DHT22;12036;50.858;4.472;2023-05-07T09:09:55;16.50;99.90
23715;DHT22;12036;50.858;4.472;2023-05-07T09:12:21;16.60;99.90
23715;DHT22;12036;50.858;4.472;2023-05-07T09:14:47;16.70;99.90
23715;DHT22;12036;50.858;4.472;2023-05-07T09:17:13;16.70;99.90
23715;DHT22;12036;50.858;4.472;2023-05-07T09:19:39;16.70;99.90
23715;DHT22;12036;50.858;4.472;2023-05-07T09:22:05;16.70;99.90
23715;DHT22;12036;50.858;4.472;2023-05-07T09:24:34;16.60;99.90
23715;DHT22;12036;50.858;4.472;2023-05-07T09:27:02;16.50;99.90
23715;DHT22;12036;50.858;4.472;2023-05-07T09:29:28;16.60;99.90
23715;DHT22;12036;50.858;4.472;2023-05-07T09:31:55;16.60;99.90
23715;DHT22;12036;50.858;4.472;2023-05-07T09:34:21;16.70;99.90
23715;DHT22;12036;50.858;4.472;2023-05-07T09:36:47;16.70;99.90
23715;DHT22;12036;50.858;4.472;2023-05-07T09:39:13;16.80;99.90
23715;DHT22;12036;50.858;4.472;2023-05-07T09:41:46;16.80;99.90
23715;DHT22;12036;50.858;4.472;2023-05-07T09:44:13;16.90;99.90
23715;DHT22;12036;50.858;4.472;2023-05-07T09:46:42;17.00;99.90
23715;DHT22;12036;50.858;4.472;2023-05-07T09:49:13;17.00;99.90
23715;DHT22;12036;50.858;4.472;2023-05-07T09:51:48;17.00;99.90
23715;DHT22;12036;50.858;4.472;2023-05-07T09:54:15;17.10;99.90
23715;DHT22;12036;50.858;4.472;2023-05-07T09:56:45;17.10;99.90
23715;DHT22;12036;50.858;4.472;2023-05-07T09:59:13;17.00;99.90
23715;DHT22;12036;50.858;4.472;2023-05-07T10:01:41;16.90;99.90
23715;DHT22;12036;50.858;4.472;2023-05-07T10:04:08;16.60;99.90
23715;DHT22;12036;50.858;4.472;2023-05-07T10:06:35;16.60;99.90
23715;DHT22;12036;50.858;4.472;2023-05-07T10:09:01;16.50;99.90
23715;DHT22;12036;50.858;4.472;2023-05-07T10:11:28;16.50;99.90
23715;DHT22;12036;50.858;4.472;2023-05-07T10:13:53;16.50;99.90
23715;DHT22;12036;50.858;4.472;2023-05-07T10:16:20;16.60;99.90
23715;DHT22;12036;50.858;4.472;2023-05-07T10:18:46;16.70;99.90
23715;DHT22;12036;50.858;4.472;2023-05-07T10:21:18;16.80;99.90
23715;DHT22;12036;50.858;4.472;2023-05-07T10:24:04;16.90;99.90
23715;DHT22;12036;50.858;4.472;2023-05-07T10:26:36;16.80;99.90
23715;DHT22;12036;50.858;4.472;2023-05-07T10:29:23;16.90;99.90
23715;DHT22;12036;50.858;4.472;2023-05-07T10:31:55;16.90;99.90
23715;DHT22;12036;50.858;4.472;2023-05-07T10:34:28;17.00;99.90
23715;DHT22;12036;50.858;4.472;2023-05-07T10:36:55;17.00;99.90
23715;DHT22;12036;50.858;4.472;2023-05-07T10:39:22;17.00;99.90
23715;DHT22;12036;50.858;4.472;2023-05-07T10:41:48;16.90;99.90
23715;DHT22;12036;50.858;4.472;2023-05-07T10:44:29;16.80;99.90
23715;DHT22;12036;50.858;4.472;2023-05-07T10:47:16;16.90;99.90
23715;DHT22;12036;50.858;4.472;2023-05-07T10:52:20;17.10;99.90
23715;DHT22;12036;50.858;4.472;2023-05-07T10:54:47;17.10;99.90
23715;DHT22;12036;50.858;4.472;2023-05-07T11:00:01;17.00;99.90
23715;DHT22;12036;50.858;4.472;2023-05-07T11:05:24;17.10;99.90
23715;DHT22;12036;50.858;4.472;2023-05-07T11:08:00;17.20;99.90
23715;DHT22;12036;50.858;4.472;2023-05-07T11:10:50;17.00;99.90
23715;DHT22;12036;50.858;4.472;2023-05-07T11:13:16;16.80;99.90
23715;DHT22;12036;50.858;4.472;2023-05-07T11:15:47;16.90;99.90
23715;DHT22;12036;50.858;4.472;2023-05-07T11:18:15;17.00;99.90
23715;DHT22;12036;50.858;4.472;2023-05-07T11:20:53;17.20;99.90
23715;DHT22;12036;50.858;4.472;2023-05-07T11:26:10;17.20;99.90
23715;DHT22;12036;50.858;4.472;2023-05-07T11:28:38;17.20;99.90
23715;DHT22;12036;50.858;4.472;2023-05-07T11:31:04;17.20;99.90
23715;DHT22;12036;50.858;4.472;2023-05-07T11:33:30;17.40;99.90
23715;DHT22;12036;50.858;4.472;2023-05-07T11:35:57;17.40;99.90
23715;DHT22;12036;50.858;4.472;2023-05-07T11:38:22;17.40;99.90
23715;DHT22;12036;50.858;4.472;2023-05-07T11:40:52;17.40;99.90
23715;DHT22;12036;50.858;4.472;2023-05-07T11:43:18;17.50;99.90
23715;DHT22;12036;50.858;4.472;2023-05-07T11:45:48;17.40;99.90
23715;DHT22;12036;50.858;4.472;2023-05-07T11:48:14;17.50;99.90
23715;DHT22;12036;50.858;4.472;2023-05-07T11:53:34;17.70;99.90
23715;DHT22;12036;50.858;4.472;2023-05-07T11:56:01;17.80;99.90
23715;DHT22;12036;50.858;4.472;2023-05-07T11:58:31;17.90;99.90
23715;DHT22;12036;50.858;4.472;2023-05-07T12:00:57;17.80;99.90
23715;DHT22;12036;50.858;4.472;2023-05-07T12:03:22;17.90;99.90
23715;DHT22;12036;50.858;4.472;2023-05-07T12:05:48;18.00;99.90
23715;DHT22;12036;50.858;4.472;2023-05-07T12:08:21;18.20;99.90
23715;DHT22;12036;50.858;4.472;2023-05-07T12:10:49;18.30;99.90
23715;DHT22;12036;50.858;4.472;2023-05-07T12:13:23;18.40;99.90
23715;DHT22;12036;50.858;4.472;2023-05-07T12:15:53;18.50;99.90
23715;DHT22;12036;50.858;4.472;2023-05-07T12:18:19;18.60;99.90
23715;DHT22;12036;50.858;4.472;2023-05-07T12:20:46;18.80;99.90
23715;DHT22;12036;50.858;4.472;2023-05-07T12:23:13;18.90;99.90
23715;DHT22;12036;50.858;4.472;2023-05-07T12:25:39;19.00;99.90
23715;DHT22;12036;50.858;4.472;2023-05-07T12:28:07;19.00;99.90
23715;DHT22;12036;50.858;4.472;2023-05-07T12:30:37;19.10;99.90
23715;DHT22;12036;50.858;4.472;2023-05-07T12:33:03;19.10;99.90
23715;DHT22;12036;50.858;4.472;2023-05-07T12:35:29;19.00;99.90
23715;DHT22;12036;50.858;4.472;2023-05-07T12:37:59;19.10;99.90
23715;DHT22;12036;50.858;4.472;2023-05-07T12:43:05;19.10;99.90
23715;DHT22;12036;50.858;4.472;2023-05-07T12:45:30;19.00;99.90
23715;DHT22;12036;50.858;4.472;2023-05-07T12:47:56;19.00;99.90
23715;DHT22;12036;50.858;4.472;2023-05-07T12:50:26;19.00;99.90
23715;DHT22;12036;50.858;4.472;2023-05-07T12:52:56;19.00;99.90
23715;DHT22;12036;50.858;4.472;2023-05-07T12:55:21;19.00;99.90
23715;DHT22;12036;50.858;4.472;2023-05-07T12:57:51;19.00;99.90
23715;DHT22;12036;50.858;4.472;2023-05-07T13:00:32;19.00;99.90
23715;DHT22;12036;50.858;4.472;2023-05-07T13:02:58;18.90;99.90
23715;DHT22;12036;50.858;4.472;2023-05-07T13:05:24;18.80;99.90
23715;DHT22;12036;50.858;4.472;2023-05-07T13:07:53;18.80;99.90
23715;DHT22;12036;50.858;4.472;2023-05-07T13:10:20;19.00;99.90
23715;DHT22;12036;50.858;4.472;2023-05-07T13:12:45;19.00;99.90
23715;DHT22;12036;50.858;4.472;2023-05-07T13:15:11;19.20;99.90
23715;DHT22;12036;50.858;4.472;2023-05-07T13:17:36;19.20;99.90
23715;DHT22;12036;50.858;4.472;2023-05-07T13:20:02;19.30;99.90
23715;DHT22;12036;50.858;4.472;2023-05-07T13:22:28;19.30;99.90
23715;DHT22;12036;50.858;4.472;2023-05-07T13:24:54;19.30;99.90
23715;DHT22;12036;50.858;4.472;2023-05-07T13:27:20;19.30;99.90
23715;DHT22;12036;50.858;4.472;2023-05-07T13:29:45;19.40;99.90
23715;DHT22;12036;50.858;4.472;2023-05-07T13:32:11;19.10;99.90
23715;DHT22;12036;50.858;4.472;2023-05-07T13:34:36;19.10;99.90
23715;DHT22;12036;50.858;4.472;2023-05-07T13:37:02;19.20;99.90
23715;DHT22;12036;50.858;4.472;2023-05-07T13:39:28;19.20;99.90
23715;DHT22;12036;50.858;4.472;2023-05-07T13:41:53;18.80;99.90
23715;DHT22;12036;50.858;4.472;2023-05-07T13:44:19;18.80;99.90
23715;DHT22;12036;50.858;4.472;2023-05-07T13:46:45;19.00;99.90
23715;DHT22;12036;50.858;4.472;2023-05-07T13:49:10;19.20;99.90
23715;DHT22;12036;50.858;4.472;2023-05-07T13:51:37;19.30;99.90
23715;DHT22;12036;50.858;4.472;2023-05-07T13:54:03;19.30;99.90
23715;DHT22;12036;50.858;4.472;2023-05-07T13:56:29;19.50;99.90
23715;DHT22;12036;50.858;4.472;2023-05-07T13:58:57;19.50;99.90
23715;DHT22;12036;50.858;4.472;2023-05-07T14:01:23;19.40;99.90
23715;DHT22;12036;50.858;4.472;2023-05-07T14:03:49;19.40;99.90
23715;DHT22;12036;50.858;4.472;2023-05-07T14:06:14;19.30;99.90
23715;DHT22;12036;50.858;4.472;2023-05-07T14:08:40;19.30;99.90
23715;DHT22;12036;50.858;4.472;2023-05-07T14:11:06;19.40;99.90
23715;DHT22;12036;50.858;4.472;2023-05-07T14:13:31;19.40;99.90
23715;DHT22;12036;50.858;4.472;2023-05-07T14:15:57;19.50;99.90
23715;DHT22;12036;50.858;4.472;2023-05-07T14:18:23;19.60;99.90
23715;DHT22;12036;50.858;4.472;2023-05-07T14:20:49;19.60;99.90
23715;DHT22;12036;50.858;4.472;2023-05-07T14:23:15;19.70;99.90
23715;DHT22;12036;50.858;4.472;2023-05-07T14:25:43;19.70;99.90
23715;DHT22;12036;50.858;4.472;2023-05-07T14:28:09;19.70;99.90
23715;DHT22;12036;50.858;4.472;2023-05-07T14:30:34;19.80;99.90
23715;DHT22;12036;50.858;4.472;2023-05-07T14:33:00;19.80;99.90
23715;DHT22;12036;50.858;4.472;2023-05-07T14:35:26;19.70;99.90
23715;DHT22;12036;50.858;4.472;2023-05-07T14:37:51;19.70;99.90
23715;DHT22;12036;50.858;4.472;2023-05-07T14:40:17;19.50;99.90
23715;DHT22;12036;50.858;4.472;2023-05-07T14:42:42;19.40;99.90
23715;DHT22;12036;50.858;4.472;2023-05-07T14:45:09;19.40;99.90
23715;DHT22;12036;50.858;4.472;2023-05-07T14:47:34;19.30;99.90
23715;DHT22;12036;50.858;4.472;2023-05-07T14:50:00;19.20;99.90
23715;DHT22;12036;50.858;4.472;2023-05-07T14:52:26;19.20;99.90
23715;DHT22;12036;50.858;4.472;2023-05-07T14:54:52;19.20;99.90
23715;DHT22;12036;50.858;4.472;2023-05-07T14:57:17;19.20;99.90
23715;DHT22;12036;50.858;4.472;2023-05-07T14:59:44;19.30;99.90
23715;DHT22;12036;50.858;4.472;2023-05-07T15:02:11;19.40;99.90
23715;DHT22;12036;50.858;4.472;2023-05-07T15:04:37;19.40;99.90
23715;DHT22;12036;50.858;4.472;2023-05-07T15:07:12;19.30;99.90
23715;DHT22;12036;50.858;4.472;2023-05-07T15:09:40;19.30;99.90
23715;DHT22;12036;50.858;4.472;2023-05-07T15:12:06;19.30;99.90
23715;DHT22;12036;50.858;4.472;2023-05-07T15:14:33;19.40;99.90
23715;DHT22;12036;50.858;4.472;2023-05-07T15:16:58;19.20;99.90
23715;DHT22;12036;50.858;4.472;2023-05-07T15:19:24;19.10;99.90
23715;DHT22;12036;50.858;4.472;2023-05-07T15:21:54;19.10;99.90
23715;DHT22;12036;50.858;4.472;2023-05-07T15:24:20;19.00;99.90
23715;DHT22;12036;50.858;4.472;2023-05-07T15:26:46;18.80;99.90
23715;DHT22;12036;50.858;4.472;2023-05-07T15:29:11;18.70;99.90
23715;DHT22;12036;50.858;4.472;2023-05-07T15:31:37;18.60;99.90
23715;DHT22;12036;50.858;4.472;2023-05-07T15:34:04;18.60;99.90
23715;DHT22;12036;50.858;4.472;2023-05-07T15:36:29;18.60;99.90
23715;DHT22;12036;50.858;4.472;2023-05-07T15:38:55;18.50;99.90
23715;DHT22;12036;50.858;4.472;2023-05-07T15:41:21;18.60;99.90
23715;DHT22;12036;50.858;4.472;2023-05-07T15:43:49;18.60;99.90